Time;durP1;ratioP1;P1;durP2;ratioP2;P2;SDS_P1;SDS_P2;PMS_P1;PMS_P2;Temp;Humidity;BMP_temperature;BMP_pressure;BME280_temperature;BME280_humidity;BME280_pressure;Samples;Min_cycle;Max_cycle;Signal;HPM_P1;HPM_P2
2023/03/01 00:00:38;;;;;;;24.38;12.82;;;1.80;47.30;;;;;;5022853;28;46279;-63
2023/03/01 00:03:04;;;;;;;20.30;10.87;;;1.80;47.10;;;;;;5020638;28;46458;-64
2023/03/01 00:05:30;;;;;;;19.07;11.27;;;1.80;47.10;;;;;;5019591;28;46488;-65
2023/03/01 00:07:56;;;;;;;19.30;12.20;;;1.80;46.90;;;;;;5018968;28;46571;-64
2023/03/01 00:10:22;;;;;;;24.20;12.57;;;1.90;47.00;;;;;;5017455;28;46392;-64
2023/03/01 00:12:47;;;;;;;21.13;13.27;;;1.80;46.90;;;;;;5018463;28;46375;-64
2023/03/01 00:15:13;;;;;;;22.77;13.30;;;1.90;46.90;;;;;;5019404;28;46394;-62
2023/03/01 00:17:39;;;;;;;29.20;12.40;;;1.80;47.10;;;;;;5017699;28;46657;-62
2023/03/01 00:20:10;;;;;;;20.50;11.50;;;1.90;47.00;;;;;;5019243;28;46240;-64
2023/03/01 00:22:39;;;;;;;21.42;12.43;;;1.90;47.00;;;;;;5016945;28;46282;-63
2023/03/01 00:25:05;;;;;;;19.13;12.13;;;1.90;46.90;;;;;;5018475;28;46422;-64
2023/03/01 00:27:31;;;;;;;22.23;13.43;;;1.90;46.70;;;;;;5022925;28;46398;-63
2023/03/01 00:29:56;;;;;;;20.17;11.60;;;1.90;46.90;;;;;;5022574;28;46409;-63
2023/03/01 00:32:22;;;;;;;21.20;12.20;;;1.90;47.00;;;;;;5021624;28;46486;-64
2023/03/01 00:34:53;;;;;;;21.53;12.00;;;1.80;47.20;;;;;;5019240;28;45895;-64
2023/03/01 00:37:23;;;;;;;22.20;12.55;;;1.80;47.30;;;;;;5020738;28;47185;-65
2023/03/01 00:39:50;;;;;;;23.50;12.38;;;1.80;47.20;;;;;;5022104;28;46603;-63
2023/03/01 00:42:16;;;;;;;25.35;12.32;;;1.80;47.00;;;;;;5022986;28;46429;-64
2023/03/01 00:44:41;;;;;;;19.55;12.00;;;1.80;47.40;;;;;;5022110;28;46414;-64
2023/03/01 00:47:08;;;;;;;23.73;12.17;;;2.00;47.40;;;;;;5022365;28;47917;-64
2023/03/01 00:49:34;;;;;;;21.80;12.48;;;1.90;47.20;;;;;;5021551;28;46449;-63
2023/03/01 00:52:00;;;;;;;24.35;12.95;;;1.90;47.10;;;;;;5020811;28;46315;-64
2023/03/01 00:54:25;;;;;;;22.58;12.40;;;1.80;47.30;;;;;;5020420;28;46191;-63
2023/03/01 00:56:51;;;;;;;23.37;12.40;;;1.90;47.30;;;;;;5020746;28;47026;-63
2023/03/01 00:59:17;;;;;;;20.77;12.13;;;1.90;47.20;;;;;;5021454;28;46393;-64
2023/03/01 01:01:42;;;;;;;21.90;11.60;;;1.80;47.20;;;;;;5020661;28;46557;-63
2023/03/01 01:04:11;;;;;;;27.20;13.30;;;1.90;47.50;;;;;;5020415;28;46471;-65
2023/03/01 01:06:42;;;;;;;21.15;13.40;;;2.00;47.70;;;;;;5022029;28;47253;-65
2023/03/01 01:09:09;;;;;;;23.33;13.05;;;1.90;47.30;;;;;;5021586;28;45839;-65
2023/03/01 01:11:36;;;;;;;24.23;12.95;;;1.90;47.30;;;;;;5022055;28;45841;-63
2023/03/01 01:14:03;;;;;;;24.40;13.07;;;1.90;47.20;;;;;;5022786;28;47697;-64
2023/03/01 01:16:30;;;;;;;18.77;12.00;;;1.90;47.20;;;;;;5023403;28;46358;-64
2023/03/01 01:18:56;;;;;;;19.83;11.85;;;1.90;47.40;;;;;;5019413;28;46386;-63
2023/03/01 01:21:24;;;;;;;21.65;12.15;;;1.80;47.40;;;;;;5023810;28;46417;-65
2023/03/01 01:23:51;;;;;;;21.92;12.27;;;1.80;47.60;;;;;;5022635;28;46441;-65
2023/03/01 01:26:21;;;;;;;24.10;13.23;;;1.80;47.70;;;;;;5022186;28;46426;-64
2023/03/01 01:28:47;;;;;;;20.98;12.52;;;1.80;47.70;;;;;;5022139;28;46502;-64
2023/03/01 01:31:14;;;;;;;24.10;12.70;;;1.80;47.50;;;;;;5022933;28;46341;-64
2023/03/01 01:33:40;;;;;;;23.92;12.27;;;1.80;47.60;;;;;;5002800;28;46512;-65
2023/03/01 01:36:07;;;;;;;24.15;13.02;;;1.90;47.40;;;;;;5018179;28;46374;-64
2023/03/01 01:38:34;;;;;;;28.00;12.48;;;1.90;47.40;;;;;;5020457;28;46364;-64
2023/03/01 01:41:00;;;;;;;24.92;12.70;;;1.90;47.30;;;;;;5018339;28;46529;-64
2023/03/01 01:43:29;;;;;;;24.03;12.97;;;1.90;47.50;;;;;;5020380;28;46446;-63
2023/03/01 01:45:59;;;;;;;25.13;12.60;;;1.90;47.70;;;;;;5015265;28;47395;-64
2023/03/01 01:48:40;;;;;;;21.27;11.85;;;1.90;47.60;;;;;;5019933;28;46602;-65
2023/03/01 01:51:09;;;;;;;23.77;11.63;;;1.80;47.50;;;;;;5022995;28;46386;-65
2023/03/01 01:53:36;;;;;;;23.10;11.90;;;1.80;47.70;;;;;;5021241;28;46418;-65
2023/03/01 01:56:03;;;;;;;22.52;12.05;;;1.80;47.50;;;;;;5019132;28;48801;-64
2023/03/01 01:58:30;;;;;;;21.90;11.98;;;1.80;47.50;;;;;;5022183;28;46461;-64
2023/03/01 02:00:56;;;;;;;23.23;11.90;;;1.80;47.60;;;;;;5023528;28;46541;-64
2023/03/01 02:03:29;;;;;;;18.63;11.27;;;1.80;47.60;;;;;;5023828;28;46424;-63
2023/03/01 02:05:55;;;;;;;25.50;12.18;;;1.80;47.60;;;;;;5019371;28;48931;-64
2023/03/01 02:08:23;;;;;;;19.07;12.07;;;1.80;47.70;;;;;;5020028;28;46299;-63
2023/03/01 02:10:50;;;;;;;22.45;12.13;;;1.80;47.70;;;;;;5022026;28;46391;-64
2023/03/01 02:13:15;;;;;;;23.00;12.50;;;1.80;47.70;;;;;;5021502;28;46380;-65
2023/03/01 02:15:43;;;;;;;22.00;13.13;;;1.80;47.90;;;;;;5021093;28;47223;-64
2023/03/01 02:18:11;;;;;;;22.45;12.20;;;1.80;47.90;;;;;;5020511;28;46376;-63
2023/03/01 02:20:58;;;;;;;22.30;12.73;;;1.80;47.90;;;;;;5022561;28;46332;-62
2023/03/01 02:23:24;;;;;;;22.70;12.05;;;1.70;48.00;;;;;;5021457;28;45928;-63
2023/03/01 02:26:00;;;;;;;22.67;12.82;;;1.70;48.20;;;;;;5023227;28;46406;-64
2023/03/01 02:28:35;;;;;;;22.10;12.63;;;1.60;48.30;;;;;;5022796;28;46328;-63
2023/03/01 02:33:48;;;;;;;22.75;13.52;;;1.50;48.50;;;;;;5018681;28;46571;-63
2023/03/01 02:36:21;;;;;;;26.55;13.73;;;1.60;48.50;;;;;;5020943;28;46448;-64
2023/03/01 02:38:49;;;;;;;21.98;11.95;;;1.60;48.40;;;;;;5019978;28;46452;-66
2023/03/01 02:41:19;;;;;;;19.63;11.93;;;1.60;48.60;;;;;;5020985;28;46698;-63
2023/03/01 02:43:45;;;;;;;20.98;12.35;;;1.60;48.40;;;;;;5020806;28;45931;-65
2023/03/01 02:46:21;;;;;;;20.77;13.23;;;1.60;48.70;;;;;;5022139;28;46432;-64
2023/03/01 02:48:50;;;;;;;23.95;12.90;;;1.60;48.50;;;;;;5019373;28;46558;-64
2023/03/01 02:52:03;;;;;;;24.73;13.30;;;1.60;48.40;;;;;;5021257;28;45892;-64
2023/03/01 02:54:53;;;;;;;22.98;12.05;;;1.70;48.30;;;;;;4997379;28;45900;-65
2023/03/01 02:57:21;;;;;;;20.30;11.88;;;1.60;48.30;;;;;;5018746;28;46370;-65
2023/03/01 02:59:49;;;;;;;18.23;10.55;;;1.60;48.30;;;;;;5018461;28;46419;-64
2023/03/01 03:02:35;;;;;;;21.42;12.48;;;1.70;48.30;;;;;;5016948;28;46685;-64
2023/03/01 03:05:02;;;;;;;19.95;11.32;;;1.60;48.30;;;;;;5013213;28;46460;-64
2023/03/01 03:07:27;;;;;;;20.05;12.70;;;1.60;48.30;;;;;;5014723;28;46538;-63
2023/03/01 03:09:53;;;;;;;22.07;12.20;;;1.60;48.40;;;;;;5019937;28;46559;-63
2023/03/01 03:12:19;;;;;;;19.50;11.67;;;1.60;48.30;;;;;;5017184;28;46351;-62
2023/03/01 03:14:44;;;;;;;21.37;13.17;;;1.60;48.50;;;;;;5019612;28;46439;-63
2023/03/01 03:17:10;;;;;;;22.90;12.60;;;1.60;48.50;;;;;;5018701;28;46357;-62
2023/03/01 03:19:35;;;;;;;22.33;12.00;;;1.60;48.30;;;;;;5018555;28;46379;-63
2023/03/01 03:22:01;;;;;;;20.47;11.87;;;1.70;48.30;;;;;;5021930;28;45842;-63
2023/03/01 03:24:37;;;;;;;17.40;11.23;;;1.60;48.20;;;;;;5019030;28;46461;-63
2023/03/01 03:27:03;;;;;;;22.15;12.18;;;1.60;48.30;;;;;;5019744;28;47410;-64
2023/03/01 03:29:29;;;;;;;21.00;12.38;;;1.60;48.10;;;;;;5021132;28;46412;-63
2023/03/01 03:31:55;;;;;;;22.33;12.57;;;1.70;48.20;;;;;;5019497;28;46425;-62
2023/03/01 03:34:21;;;;;;;22.70;11.40;;;1.70;48.10;;;;;;5017754;28;46031;-63
2023/03/01 03:36:46;;;;;;;17.57;10.90;;;1.70;48.00;;;;;;5016426;28;46501;-65
2023/03/01 03:39:12;;;;;;;18.87;11.57;;;1.70;48.20;;;;;;5016899;28;46103;-64
2023/03/01 03:41:38;;;;;;;22.10;12.37;;;1.70;48.30;;;;;;5017083;28;46355;-63
2023/03/01 03:44:03;;;;;;;20.37;12.33;;;1.70;48.30;;;;;;5014636;28;46715;-63
2023/03/01 03:46:30;;;;;;;21.87;11.70;;;1.70;48.00;;;;;;5016746;28;46352;-64
2023/03/01 03:48:55;;;;;;;20.45;11.52;;;1.70;48.10;;;;;;5017675;28;46365;-65
2023/03/01 03:51:22;;;;;;;18.40;11.17;;;1.70;48.10;;;;;;5020853;28;46354;-64
2023/03/01 03:53:48;;;;;;;21.08;11.85;;;1.70;47.90;;;;;;5019644;28;46517;-63
2023/03/01 03:56:14;;;;;;;18.00;11.33;;;1.70;48.20;;;;;;5016718;28;47282;-62
2023/03/01 03:58:40;;;;;;;19.67;11.95;;;1.60;48.20;;;;;;5018660;28;46576;-65
2023/03/01 04:01:06;;;;;;;20.27;12.10;;;1.60;48.30;;;;;;5021434;28;46434;-65
2023/03/01 04:03:33;;;;;;;20.60;11.83;;;1.60;48.30;;;;;;5026105;28;46342;-64
2023/03/01 04:05:59;;;;;;;22.35;12.90;;;1.60;48.30;;;;;;5025028;28;47128;-64
2023/03/01 04:08:26;;;;;;;17.60;10.27;;;1.70;48.20;;;;;;5025726;28;45831;-64
2023/03/01 04:10:56;;;;;;;24.17;13.75;;;1.60;48.20;;;;;;5026592;28;46419;-64
2023/03/01 04:13:24;;;;;;;23.48;12.27;;;1.60;48.20;;;;;;5028540;28;46390;-64
2023/03/01 04:15:51;;;;;;;18.40;12.13;;;1.60;48.30;;;;;;5025122;28;47329;-62
2023/03/01 04:18:19;;;;;;;20.83;11.55;;;1.60;48.10;;;;;;5022392;28;46531;-65
2023/03/01 04:20:46;;;;;;;23.27;13.38;;;1.60;48.00;;;;;;5023707;28;46521;-64
2023/03/01 04:23:19;;;;;;;18.30;12.07;;;1.60;48.10;;;;;;5023378;28;46566;-66
2023/03/01 04:25:54;;;;;;;22.13;13.15;;;1.60;48.10;;;;;;5023894;28;47403;-64
2023/03/01 04:28:30;;;;;;;22.95;12.90;;;1.60;48.00;;;;;;5024075;28;46717;-64
2023/03/01 04:30:58;;;;;;;23.67;12.50;;;1.60;47.90;;;;;;5025149;28;45852;-63
2023/03/01 04:33:25;;;;;;;21.20;12.32;;;1.70;47.80;;;;;;5025423;28;45938;-64
2023/03/01 04:35:52;;;;;;;20.67;13.15;;;1.60;47.70;;;;;;5027922;28;47279;-64
2023/03/01 04:38:19;;;;;;;20.83;12.15;;;1.60;47.80;;;;;;5023194;28;46310;-63
2023/03/01 04:40:45;;;;;;;21.20;11.32;;;1.60;47.90;;;;;;5034126;28;46347;-63
2023/03/01 04:43:14;;;;;;;23.90;12.73;;;1.60;47.90;;;;;;5026825;28;46455;-63
2023/03/01 04:45:40;;;;;;;20.33;11.10;;;1.60;48.00;;;;;;5026915;28;46710;-64
2023/03/01 04:48:06;;;;;;;20.42;11.68;;;1.50;48.00;;;;;;5025320;28;46519;-63
2023/03/01 04:50:31;;;;;;;21.63;12.00;;;1.60;48.00;;;;;;5027210;28;46477;-64
2023/03/01 04:52:58;;;;;;;24.73;12.30;;;1.50;47.80;;;;;;5026920;28;46684;-63
2023/03/01 04:55:26;;;;;;;22.27;12.32;;;1.60;47.80;;;;;;5025320;28;46500;-64
2023/03/01 04:57:52;;;;;;;21.27;12.25;;;1.50;47.70;;;;;;5025576;28;46448;-63
2023/03/01 05:00:21;;;;;;;21.30;11.88;;;1.50;47.70;;;;;;5026124;28;46473;-62
2023/03/01 05:02:55;;;;;;;18.55;10.93;;;1.50;47.70;;;;;;5026729;28;46735;-64
2023/03/01 05:05:27;;;;;;;24.13;12.30;;;1.50;47.70;;;;;;5027134;28;48351;-64
2023/03/01 05:07:55;;;;;;;19.85;11.57;;;1.40;47.80;;;;;;5025462;28;46425;-65
2023/03/01 05:10:22;;;;;;;21.65;12.10;;;1.40;47.80;;;;;;5026493;28;46404;-64
2023/03/01 05:12:48;;;;;;;19.98;11.38;;;1.40;47.70;;;;;;5019127;28;46465;-65
2023/03/01 05:15:14;;;;;;;22.43;11.60;;;1.40;47.80;;;;;;5021405;28;46449;-66
2023/03/01 05:17:40;;;;;;;20.15;11.32;;;1.40;47.70;;;;;;5023076;28;46449;-65
2023/03/01 05:20:08;;;;;;;20.33;11.83;;;1.40;47.60;;;;;;5021174;28;46446;-65
2023/03/01 05:22:35;;;;;;;23.25;11.77;;;1.40;47.60;;;;;;5021060;28;46621;-66
2023/03/01 05:25:01;;;;;;;28.50;12.13;;;1.40;47.40;;;;;;5022633;28;47626;-66
2023/03/01 05:27:27;;;;;;;19.70;11.97;;;1.40;47.40;;;;;;5022382;28;46486;-65
2023/03/01 05:29:52;;;;;;;20.63;10.37;;;1.50;47.50;;;;;;5023268;28;46407;-65
2023/03/01 05:32:18;;;;;;;23.70;13.40;;;1.30;47.50;;;;;;5026810;28;46330;-65
2023/03/01 05:34:46;;;;;;;21.93;11.73;;;1.30;47.50;;;;;;5022743;28;47308;-64
2023/03/01 05:37:13;;;;;;;23.38;11.93;;;1.30;47.30;;;;;;5021250;28;46575;-64
2023/03/01 05:39:39;;;;;;;18.75;11.20;;;1.20;47.20;;;;;;5018952;28;46366;-65
2023/03/01 05:42:05;;;;;;;21.70;12.88;;;1.30;47.40;;;;;;5020296;28;46482;-64
2023/03/01 05:44:30;;;;;;;19.80;11.50;;;1.20;47.30;;;;;;5021699;28;46294;-66
2023/03/01 05:46:56;;;;;;;19.03;12.13;;;1.30;47.50;;;;;;5021754;28;46346;-64
2023/03/01 05:49:23;;;;;;;21.60;12.97;;;1.10;47.60;;;;;;5022039;28;46329;-64
2023/03/01 05:51:51;;;;;;;35.75;13.25;;;1.00;47.50;;;;;;5022133;28;46398;-63
2023/03/01 05:54:17;;;;;;;20.20;12.50;;;1.00;47.60;;;;;;5021818;28;47100;-64
2023/03/01 05:56:43;;;;;;;20.17;11.82;;;1.00;47.50;;;;;;5023414;28;46212;-64
2023/03/01 05:59:09;;;;;;;22.30;12.30;;;1.00;47.40;;;;;;5021759;28;46534;-66
2023/03/01 06:01:36;;;;;;;24.47;12.63;;;1.00;47.20;;;;;;5022135;28;46408;-65
2023/03/01 06:04:02;;;;;;;21.48;11.20;;;1.00;47.20;;;;;;5020470;28;47104;-64
2023/03/01 06:06:28;;;;;;;21.90;12.85;;;0.90;47.10;;;;;;5022540;28;46093;-64
2023/03/01 06:08:53;;;;;;;20.33;12.20;;;0.90;47.20;;;;;;5021413;28;46449;-65
2023/03/01 06:11:20;;;;;;;21.97;12.70;;;0.90;47.10;;;;;;5023280;28;46434;-66
2023/03/01 06:13:46;;;;;;;22.23;11.85;;;0.90;47.10;;;;;;5022409;28;46084;-65
2023/03/01 06:16:14;;;;;;;18.10;11.15;;;0.90;47.00;;;;;;5021743;28;46475;-65
2023/03/01 06:18:40;;;;;;;25.60;12.90;;;0.80;47.00;;;;;;5020773;28;46358;-66
2023/03/01 06:21:08;;;;;;;22.13;12.18;;;0.80;47.10;;;;;;5022502;28;46305;-65
2023/03/01 06:23:34;;;;;;;22.50;13.27;;;0.90;46.80;;;;;;5019143;28;46653;-64
2023/03/01 06:26:00;;;;;;;24.77;11.90;;;0.90;46.50;;;;;;5019857;28;45926;-64
2023/03/01 06:28:26;;;;;;;21.63;11.55;;;1.00;46.40;;;;;;5022716;28;46411;-65
2023/03/01 06:30:52;;;;;;;22.13;11.93;;;0.90;46.70;;;;;;5020409;28;46414;-65
2023/03/01 06:33:19;;;;;;;18.73;10.43;;;0.80;46.60;;;;;;5019160;28;46329;-64
2023/03/01 06:35:46;;;;;;;20.58;12.38;;;0.80;46.70;;;;;;5020840;28;46459;-65
2023/03/01 06:38:14;;;;;;;17.20;11.88;;;0.80;46.80;;;;;;5018446;28;46701;-64
2023/03/01 06:40:40;;;;;;;22.98;11.70;;;0.80;46.60;;;;;;5023257;28;46585;-64
2023/03/01 06:43:07;;;;;;;18.80;11.60;;;0.80;46.60;;;;;;5018184;28;46595;-65
2023/03/01 06:45:33;;;;;;;22.48;11.95;;;0.80;46.50;;;;;;5017824;28;46425;-66
2023/03/01 06:48:04;;;;;;;21.35;12.73;;;0.80;46.50;;;;;;5018559;28;46345;-64
2023/03/01 06:50:29;;;;;;;18.70;11.88;;;0.80;46.40;;;;;;5020326;28;46341;-65
2023/03/01 06:52:56;;;;;;;20.80;10.77;;;0.80;46.70;;;;;;5020478;28;47084;-65
2023/03/01 06:55:22;;;;;;;23.48;12.50;;;0.80;46.60;;;;;;5004232;28;46498;-66
2023/03/01 06:57:47;;;;;;;21.93;12.00;;;0.80;46.60;;;;;;5021756;28;46341;-64
2023/03/01 07:00:14;;;;;;;21.97;12.00;;;0.80;46.50;;;;;;5020171;28;46350;-63
2023/03/01 07:02:40;;;;;;;21.38;12.50;;;0.90;46.40;;;;;;5015474;28;46418;-63
2023/03/01 07:05:06;;;;;;;18.80;11.07;;;1.00;46.10;;;;;;5016389;28;46342;-63
2023/03/01 07:07:32;;;;;;;22.67;12.37;;;1.00;45.50;;;;;;5017094;28;46367;-63
2023/03/01 07:09:58;;;;;;;25.95;12.98;;;0.90;45.80;;;;;;5023377;28;46521;-62
2023/03/01 07:12:23;;;;;;;21.13;11.93;;;0.90;46.00;;;;;;5022781;28;47182;-63
2023/03/01 07:14:49;;;;;;;20.73;11.20;;;1.00;45.80;;;;;;5019654;28;46442;-62
2023/03/01 07:17:14;;;;;;;23.87;13.33;;;1.00;45.80;;;;;;5021171;28;46464;-63
2023/03/01 07:19:40;;;;;;;22.20;11.37;;;1.10;45.90;;;;;;5020340;28;46194;-62
2023/03/01 07:22:07;;;;;;;26.13;13.10;;;1.00;45.70;;;;;;5020808;28;46465;-62
2023/03/01 07:24:33;;;;;;;24.30;11.98;;;1.10;45.70;;;;;;5019313;28;46410;-61
2023/03/01 07:26:59;;;;;;;21.35;11.90;;;1.10;46.50;;;;;;5020934;28;45811;-62
2023/03/01 07:29:24;;;;;;;20.13;11.07;;;1.20;45.10;;;;;;5023222;28;46357;-63
2023/03/01 07:31:50;;;;;;;20.50;11.80;;;1.30;45.20;;;;;;5020443;28;46470;-62
2023/03/01 07:34:16;;;;;;;24.33;11.50;;;1.10;45.00;;;;;;5024610;28;46451;-64
2023/03/01 07:36:43;;;;;;;20.87;11.97;;;1.10;45.00;;;;;;5023119;28;46356;-64
2023/03/01 07:39:10;;;;;;;28.50;13.68;;;1.10;45.00;;;;;;5023274;28;46338;-62
2023/03/01 07:41:35;;;;;;;23.13;12.57;;;1.10;45.00;;;;;;5020502;28;46354;-63
2023/03/01 07:44:01;;;;;;;24.80;13.30;;;1.10;45.00;;;;;;5023352;28;46443;-63
2023/03/01 07:46:26;;;;;;;25.93;12.40;;;1.20;45.00;;;;;;5023147;28;45835;-65
2023/03/01 07:48:52;;;;;;;25.40;12.60;;;1.20;45.10;;;;;;5021343;28;45986;-63
2023/03/01 07:51:18;;;;;;;25.70;12.67;;;1.30;45.20;;;;;;5023217;28;45985;-62
2023/03/01 07:53:47;;;;;;;22.80;11.57;;;1.40;46.50;;;;;;5019971;28;46461;-62
2023/03/01 07:56:18;;;;;;;20.83;12.85;;;1.50;45.30;;;;;;5021123;28;46417;-64
2023/03/01 07:58:45;;;;;;;20.92;10.85;;;1.50;45.30;;;;;;5019178;28;46443;-62
2023/03/01 08:01:13;;;;;;;22.90;12.50;;;1.60;45.40;;;;;;5018843;28;46391;-64
2023/03/01 08:03:39;;;;;;;24.50;12.23;;;1.60;45.40;;;;;;5018331;28;46752;-63
2023/03/01 08:06:07;;;;;;;19.27;11.77;;;1.60;45.00;;;;;;5017581;28;46590;-64
2023/03/01 08:08:34;;;;;;;21.30;12.80;;;1.60;45.10;;;;;;5020699;28;46419;-64
2023/03/01 08:11:01;;;;;;;23.55;13.27;;;1.70;45.40;;;;;;5019691;28;46312;-64
2023/03/01 08:13:27;;;;;;;22.17;12.43;;;1.70;45.00;;;;;;5019783;28;46405;-64
2023/03/01 08:15:53;;;;;;;20.15;13.18;;;1.70;45.00;;;;;;5018567;28;45861;-63
2023/03/01 08:18:21;;;;;;;24.17;13.00;;;1.70;44.80;;;;;;5018926;28;46551;-64
2023/03/01 08:20:47;;;;;;;24.27;12.70;;;1.70;44.60;;;;;;5002685;28;46454;-64
2023/03/01 08:23:13;;;;;;;23.33;13.20;;;1.80;44.40;;;;;;5019504;28;46418;-65
2023/03/01 08:25:39;;;;;;;27.35;12.00;;;1.90;44.40;;;;;;5021046;28;46399;-64
2023/03/01 08:28:05;;;;;;;19.60;11.83;;;2.00;44.00;;;;;;5021895;28;46354;-63
2023/03/01 08:30:31;;;;;;;23.60;15.15;;;2.00;43.90;;;;;;5023595;28;46389;-62
2023/03/01 08:32:57;;;;;;;28.07;14.13;;;2.10;43.70;;;;;;5019131;28;46450;-62
2023/03/01 08:35:23;;;;;;;25.73;13.03;;;2.00;43.40;;;;;;5018734;28;46444;-63
2023/03/01 08:37:49;;;;;;;32.97;18.17;;;2.00;43.30;;;;;;5020715;28;46431;-64
2023/03/01 08:40:15;;;;;;;27.67;14.80;;;2.10;43.30;;;;;;5019899;28;46533;-63
2023/03/01 08:42:42;;;;;;;21.77;13.52;;;2.30;43.00;;;;;;5019640;28;46430;-64
2023/03/01 08:45:09;;;;;;;22.83;13.25;;;2.30;42.80;;;;;;5019545;28;46459;-63
2023/03/01 08:47:35;;;;;;;27.42;16.08;;;2.50;42.70;;;;;;5021287;28;46474;-63
2023/03/01 08:50:01;;;;;;;26.10;14.50;;;2.40;42.30;;;;;;5024151;28;46362;-64
2023/03/01 08:52:27;;;;;;;24.60;13.27;;;2.50;42.40;;;;;;5022767;28;46871;-63
2023/03/01 08:54:53;;;;;;;17.60;11.65;;;2.60;42.50;;;;;;5021837;28;46497;-64
2023/03/01 08:57:19;;;;;;;23.93;12.50;;;2.60;42.20;;;;;;5020697;28;46343;-64
2023/03/01 08:59:44;;;;;;;23.10;13.50;;;2.60;42.00;;;;;;5023042;28;46425;-63
2023/03/01 09:02:16;;;;;;;21.40;12.20;;;2.60;42.00;;;;;;5021489;28;46360;-63
2023/03/01 09:04:42;;;;;;;26.80;16.45;;;2.70;41.90;;;;;;5022947;28;45884;-63
2023/03/01 09:07:08;;;;;;;24.10;14.47;;;2.80;41.50;;;;;;5021509;28;46536;-63
2023/03/01 09:09:34;;;;;;;30.15;13.50;;;2.80;41.30;;;;;;5017618;28;46528;-63
2023/03/01 09:12:00;;;;;;;22.58;11.98;;;2.80;41.10;;;;;;5019565;28;46394;-63
2023/03/01 09:14:26;;;;;;;20.85;12.63;;;2.80;40.90;;;;;;5018206;28;46536;-63
2023/03/01 09:16:53;;;;;;;20.87;12.80;;;2.80;40.80;;;;;;5022332;28;46454;-62
2023/03/01 09:19:19;;;;;;;18.65;10.55;;;2.80;40.70;;;;;;5020367;28;46115;-62
2023/03/01 09:21:54;;;;;;;21.40;12.27;;;2.90;40.50;;;;;;5019893;28;46293;-64
2023/03/01 09:24:22;;;;;;;24.73;14.25;;;2.90;40.50;;;;;;5019687;28;46509;-63
2023/03/01 09:26:48;;;;;;;22.20;13.15;;;2.80;40.60;;;;;;5017406;28;46398;-64
2023/03/01 09:29:15;;;;;;;22.45;13.32;;;3.00;40.50;;;;;;5022657;28;46370;-63
2023/03/01 09:31:41;;;;;;;25.95;13.93;;;3.00;40.10;;;;;;5022767;28;46342;-64
2023/03/01 09:34:08;;;;;;;26.02;14.07;;;3.00;40.20;;;;;;5020725;28;46891;-65
2023/03/01 09:36:34;;;;;;;25.10;13.05;;;3.00;40.00;;;;;;5020495;28;46486;-64
2023/03/01 09:39:00;;;;;;;24.08;13.23;;;3.10;40.00;;;;;;5021493;28;46895;-64
2023/03/01 09:41:44;;;;;;;28.07;13.50;;;3.30;39.80;;;;;;5021951;28;46403;-64
2023/03/01 09:44:34;;;;;;;21.45;12.50;;;3.20;39.40;;;;;;5020976;28;46650;-64
2023/03/01 09:47:00;;;;;;;20.85;12.75;;;3.10;39.70;;;;;;5020201;28;45958;-64
2023/03/01 09:49:36;;;;;;;23.48;13.30;;;3.10;39.90;;;;;;5018216;28;47154;-64
2023/03/01 09:52:25;;;;;;;25.00;13.40;;;3.20;39.90;;;;;;5022139;28;46489;-63
2023/03/01 09:54:54;;;;;;;24.88;13.30;;;3.20;39.70;;;;;;5020996;28;46428;-63
2023/03/01 09:57:27;;;;;;;24.67;14.10;;;3.20;39.60;;;;;;5018517;28;46491;-61
2023/03/01 10:00:11;;;;;;;25.80;14.65;;;3.20;39.50;;;;;;5021218;28;46667;-64
2023/03/01 10:02:59;;;;;;;24.40;12.45;;;3.20;39.40;;;;;;5019964;28;46582;-63
2023/03/01 10:05:37;;;;;;;23.95;14.80;;;3.30;39.60;;;;;;5020858;28;46702;-63
2023/03/01 10:08:05;;;;;;;29.60;15.67;;;3.40;39.40;;;;;;5021518;28;46440;-64
2023/03/01 10:10:40;;;;;;;26.45;13.70;;;3.50;38.90;;;;;;5021494;28;46410;-64
2023/03/01 10:13:32;;;;;;;26.52;13.43;;;3.60;38.70;;;;;;5030880;28;45826;-63
2023/03/01 10:16:22;;;;;;;30.48;14.75;;;3.50;38.80;;;;;;5019955;28;46432;-64
2023/03/01 10:18:53;;;;;;;29.10;14.35;;;3.50;38.70;;;;;;5017972;28;46461;-62
2023/03/01 10:21:20;;;;;;;26.48;13.60;;;3.50;38.50;;;;;;5019822;28;46477;-65
2023/03/01 10:23:49;;;;;;;22.70;13.45;;;3.70;38.00;;;;;;5018830;28;45806;-64
2023/03/01 10:26:32;;;;;;;21.67;12.77;;;3.80;38.00;;;;;;5019969;28;46363;-64
2023/03/01 10:29:03;;;;;;;25.95;14.20;;;3.70;38.00;;;;;;5018950;28;46386;-64
2023/03/01 10:31:51;;;;;;;26.35;15.00;;;3.80;37.70;;;;;;5018046;28;46947;-64
2023/03/01 10:34:29;;;;;;;28.38;16.38;;;3.90;37.70;;;;;;5019362;28;46404;-65
2023/03/01 10:37:10;;;;;;;29.88;14.27;;;3.90;37.70;;;;;;5019937;28;45816;-64
2023/03/01 10:39:35;;;;;;;26.80;14.67;;;3.90;37.20;;;;;;5021778;28;45902;-65
2023/03/01 10:42:05;;;;;;;25.70;13.97;;;4.00;37.20;;;;;;5015521;28;46339;-63
2023/03/01 10:45:17;;;;;;;25.02;13.52;;;4.00;37.20;;;;;;5018364;28;46388;-65
2023/03/01 10:47:42;;;;;;;29.75;15.43;;;4.10;37.00;;;;;;4954172;28;46560;-65
2023/03/01 10:50:20;;;;;;;26.47;14.00;;;4.30;36.50;;;;;;5019949;28;45890;-64
2023/03/01 10:53:00;;;;;;;25.57;14.00;;;4.30;37.30;;;;;;5020538;28;46674;-66
2023/03/01 10:55:35;;;;;;;25.75;13.50;;;4.30;36.00;;;;;;5019158;28;46568;-65
2023/03/01 10:58:27;;;;;;;24.50;13.40;;;4.30;36.00;;;;;;5021934;28;46400;-65
2023/03/01 11:00:55;;;;;;;22.50;12.30;;;4.30;35.90;;;;;;5017633;28;45958;-64
2023/03/01 11:03:33;;;;;;;26.90;14.77;;;4.40;36.10;;;;;;5016212;28;47213;-65
2023/03/01 11:06:11;;;;;;;23.35;13.30;;;4.20;36.20;;;;;;5018810;28;46406;-66
2023/03/01 11:08:43;;;;;;;24.38;13.52;;;4.20;36.10;;;;;;5017177;28;45790;-63
2023/03/01 11:11:24;;;;;;;25.50;13.83;;;4.20;37.70;;;;;;5019992;28;46451;-64
2023/03/01 11:13:57;;;;;;;25.20;14.00;;;4.40;36.10;;;;;;5016289;28;46381;-64
2023/03/01 11:16:47;;;;;;;30.52;14.60;;;4.40;36.10;;;;;;5019239;28;46523;-64
2023/03/01 11:19:12;;;;;;;27.83;14.50;;;4.30;35.60;;;;;;5017542;28;46375;-64
2023/03/01 11:22:03;;;;;;;26.10;14.70;;;4.20;36.10;;;;;;5022114;28;46485;-64
2023/03/01 11:24:35;;;;;;;26.48;15.00;;;4.10;36.80;;;;;;5020839;28;46888;-64
2023/03/01 11:27:04;;;;;;;36.70;14.03;;;4.00;37.30;;;;;;5019895;28;46457;-65
2023/03/01 11:29:36;;;;;;;30.70;15.03;;;3.90;37.80;;;;;;5017101;28;46584;-63
2023/03/01 11:32:07;;;;;;;27.40;14.37;;;3.90;38.30;;;;;;5018085;28;46304;-63
2023/03/01 11:34:45;;;;;;;22.53;12.87;;;3.80;37.70;;;;;;5017385;28;47094;-64
2023/03/01 11:37:32;;;;;;;30.33;14.75;;;3.90;37.80;;;;;;5019394;28;46233;-64
2023/03/01 11:40:11;;;;;;;26.85;14.95;;;4.00;38.10;;;;;;5020192;28;46501;-64
2023/03/01 11:42:43;;;;;;;25.80;14.07;;;4.20;37.80;;;;;;5019151;28;46279;-61
2023/03/01 11:45:11;;;;;;;23.43;13.37;;;4.30;37.20;;;;;;5018065;28;46972;-61
2023/03/01 11:48:01;;;;;;;25.33;13.65;;;4.20;37.10;;;;;;5017688;28;46293;-62
2023/03/01 11:50:48;;;;;;;26.10;14.40;;;4.10;37.00;;;;;;5021481;28;46465;-62
2023/03/01 11:53:54;;;;;;;27.20;15.60;;;4.10;37.60;;;;;;5018186;28;46684;-62
2023/03/01 11:56:34;;;;;;;26.77;13.97;;;4.10;37.30;;;;;;5004926;28;46749;-63
2023/03/01 11:59:11;;;;;;;26.17;14.85;;;4.30;37.50;;;;;;5015362;28;46559;-62
2023/03/01 12:02:02;;;;;;;27.27;15.57;;;4.20;37.40;;;;;;5020749;28;46478;-62
2023/03/01 12:04:58;;;;;;;24.43;15.00;;;4.40;37.50;;;;;;5016553;28;46580;-62
2023/03/01 12:07:41;;;;;;;33.00;16.00;;;4.60;37.20;;;;;;4969835;28;46448;-62
2023/03/01 12:10:26;;;;;;;29.50;16.40;;;4.80;36.80;;;;;;5017510;28;45897;-63
2023/03/01 12:13:16;;;;;;;24.17;14.13;;;4.80;36.50;;;;;;5017168;28;46370;-62
2023/03/01 12:15:45;;;;;;;24.33;15.70;;;4.70;36.30;;;;;;5016679;28;46008;-62
2023/03/01 12:18:51;;;;;;;25.47;15.67;;;4.80;36.70;;;;;;5018637;28;46406;-64
2023/03/01 12:21:17;;;;;;;29.10;15.20;;;4.90;36.70;;;;;;4982250;28;46342;-62
2023/03/01 12:24:02;;;;;;;23.40;13.53;;;5.20;36.10;;;;;;5021891;28;46316;-64
2023/03/01 12:26:31;;;;;;;31.80;15.57;;;5.20;35.60;;;;;;5021703;28;46705;-65
2023/03/01 12:29:01;;;;;;;28.27;13.93;;;5.30;35.30;;;;;;5022628;28;46413;-63
2023/03/01 12:31:39;;;;;;;27.17;13.50;;;5.40;35.00;;;;;;5023848;28;46521;-65
2023/03/01 12:34:14;;;;;;;25.03;14.77;;;5.40;34.10;;;;;;5021079;28;46446;-64
2023/03/01 12:37:05;;;;;;;23.97;15.50;;;5.20;34.20;;;;;;5021720;28;46429;-64
2023/03/01 12:39:45;;;;;;;27.03;15.00;;;5.30;35.10;;;;;;5022221;28;47111;-63
2023/03/01 12:42:29;;;;;;;27.63;14.60;;;5.30;34.50;;;;;;5022767;28;46435;-65
2023/03/01 12:45:30;;;;;;;29.90;15.80;;;5.30;34.10;;;;;;5022141;28;46422;-65
2023/03/01 12:48:18;;;;;;;28.47;15.27;;;5.40;34.10;;;;;;5008605;28;46544;-64
2023/03/01 12:50:48;;;;;;;25.20;14.07;;;5.50;34.00;;;;;;5020646;28;46486;-65
2023/03/01 12:53:31;;;;;;;27.77;15.90;;;5.70;33.70;;;;;;5019778;28;47170;-65